Accueil
METAR-TAF:

METAR-TAF

Aéroports :

Scappoose Industrial Airpark

Scappoose, Oregon, États-Unis

latitude: 45-46-09N, longitude: 122-51-44W, altitude: 16 m

Observation

Le bulletin a été fait il y a 30 minutes, à 05:53 UTC
Vent calme
Température 9°C
Humidité 81%
Pression 1026 hPa
Visibilité: 16.1 km
Ciel clair

METAR: KSPB 220553Z AUTO 00000KT 10SM CLR 09/06 A3031 RMK AO2 SLP265 T00940056 10172 20089 51012

Heure: 23:23 (06:23 UTC)


TAF: absent

Observations et prévisions météorologiques de plus de 4000 aéroports (messages METAR et TAF).

Les stations disponibles sont représentées par des disques jaunes et rouges sur la carte.

Passer la souris dessus pour voir le nom de la station.

Cliquer dessus pour voir les observations et prévisions météorologiques.

Pour changer de carte: cliquez sur les boutons verts avec une croix noire pour zoomer, sur le bouton vert avec un tiret pour effectuer un zoom arrière, ou sur les flèches vertes pour les cartes adjacentes.


METAR-TAF: